Terminal Aerodrome Forecast
Issued by NWS

Current Version | Previous Version | Graphics & Text | Print | Product List | Glossary On
Versions: 1 2 3 4 5 6 7 8 9 10 11 12 13 14 15 16 17
000
FTUS41 KILN 230540
TAFLUK
TAF
KLUK 230540Z 2306/2406 07008KT P6SM OVC120
     FM231400 10012KT 5SM -SHRA OVC050
     FM231700 10012G20KT 5SM -SHRA OVC025
     FM232200 09012KT P6SM VCSH OVC025
     FM240400 09008KT P6SM VCSH OVC040=

USA.gov is the U.S. government's official web portal to all federal, state and local government web resources and services.